createdAt,value
2022-07-29T00:08:17.161Z,13
2022-07-29T00:36:48.427Z,12
2022-07-29T01:05:48.386Z,13
2022-07-29T01:33:57.029Z,12
2022-07-29T02:02:36.957Z,13
2022-07-29T02:31:21.673Z,14
2022-07-29T02:59:51.749Z,13
2022-07-29T03:28:28.146Z,12
2022-07-29T03:57:00.712Z,14
2022-07-29T04:25:31.921Z,14
2022-07-29T04:54:13.352Z,14
2022-07-29T05:22:43.484Z,15
2022-07-29T05:51:30.191Z,20
2022-07-29T06:20:15.274Z,14
2022-07-29T06:48:42.824Z,15
2022-07-29T07:17:31.410Z,12
2022-07-29T07:46:02.745Z,12
2022-07-29T08:14:27.488Z,12
2022-07-29T08:42:57.371Z,10
2022-07-29T09:11:34.282Z,10
2022-07-29T09:40:11.950Z,10
2022-07-29T10:08:50.694Z,10
2022-07-29T10:37:24.178Z,10
2022-07-29T11:05:48.692Z,8
2022-07-29T11:34:15.035Z,8
2022-07-29T12:02:39.536Z,9
2022-07-29T12:30:57.859Z,8
2022-07-29T12:59:20.645Z,8
2022-07-29T13:27:42.018Z,7
2022-07-29T13:56:15.448Z,7
2022-07-29T14:24:46.802Z,8
2022-07-29T14:53:24.794Z,7
2022-07-29T15:21:59.210Z,7
2022-07-29T15:52:32.926Z,9
2022-07-29T16:21:43.374Z,7
2022-07-29T16:50:16.050Z,7
2022-07-29T17:18:50.023Z,6
2022-07-29T17:47:15.761Z,6
2022-07-29T18:15:28.319Z,6
2022-07-29T18:43:44.627Z,6
2022-07-29T19:12:05.795Z,4
2022-07-29T19:40:47.525Z,4
2022-07-29T20:09:20.685Z,6
2022-07-29T20:37:27.226Z,4
2022-07-29T21:05:50.048Z,5
2022-07-29T21:34:18.824Z,6
2022-07-29T22:02:55.551Z,6
2022-07-29T22:31:23.273Z,6
2022-07-29T22:59:59.708Z,7
2022-07-29T23:28:38.186Z,10
2022-07-29T23:57:25.382Z,7
